Time;durP1;ratioP1;P1;durP2;ratioP2;P2;SDS_P1;SDS_P2;PMS_P1;PMS_P2;Temp;Humidity;BMP_temperature;BMP_pressure;BME280_temperature;BME280_humidity;BME280_pressure;Samples;Min_cycle;Max_cycle;Signal;HPM_P1;HPM_P2
2022/11/12 00:00:21;;;;;;;16.35;8.40;;;8.00;99.90;;;;;;4960547;28;20043;-84
2022/11/12 00:02:47;;;;;;;17.27;8.30;;;8.00;99.90;;;;;;4958928;28;20037;-85
2022/11/12 00:05:13;;;;;;;13.60;7.80;;;8.00;99.90;;;;;;4957931;28;20061;-85
2022/11/12 00:07:39;;;;;;;15.85;8.25;;;8.10;99.90;;;;;;4945051;28;20046;-85
2022/11/12 00:10:05;;;;;;;14.80;8.10;;;8.10;99.90;;;;;;4929517;28;20077;-85
2022/11/12 00:12:31;;;;;;;15.52;8.07;;;8.00;99.90;;;;;;4944531;28;20046;-85
2022/11/12 00:14:57;;;;;;;16.17;8.50;;;8.00;99.90;;;;;;4958218;28;20564;-85
2022/11/12 00:17:23;;;;;;;15.07;8.13;;;8.00;99.90;;;;;;4961164;28;20133;-85
2022/11/12 00:19:49;;;;;;;14.63;8.43;;;8.50;99.90;;;;;;4942486;28;20046;-84
2022/11/12 00:22:14;;;;;;;15.73;8.40;;;8.00;99.90;;;;;;4961609;28;20089;-84
2022/11/12 00:24:40;;;;;;;14.93;8.70;;;8.30;99.90;;;;;;4942675;28;20041;-85
2022/11/12 00:27:06;;;;;;;16.58;8.00;;;8.90;99.90;;;;;;4925048;28;20129;-85
2022/11/12 00:29:31;;;;;;;16.42;8.05;;;7.90;99.90;;;;;;4973358;28;20046;-84
2022/11/12 00:31:57;;;;;;;14.98;8.57;;;8.30;99.90;;;;;;4933408;28;20046;-85
2022/11/12 00:34:22;;;;;;;15.30;8.55;;;8.70;99.90;;;;;;4958631;28;20125;-85
2022/11/12 00:36:48;;;;;;;16.52;8.95;;;8.90;99.90;;;;;;4943918;28;20035;-85
2022/11/12 00:39:14;;;;;;;15.10;8.57;;;8.30;99.90;;;;;;4939218;28;20042;-85
2022/11/12 00:41:40;;;;;;;17.17;8.82;;;8.60;99.90;;;;;;4955313;28;20039;-85
2022/11/12 00:44:05;;;;;;;17.88;8.90;;;8.20;99.90;;;;;;4940542;28;20972;-85
2022/11/12 00:46:31;;;;;;;15.75;8.75;;;7.90;99.90;;;;;;4956675;28;20044;-85
2022/11/12 00:48:56;;;;;;;16.08;8.63;;;8.20;99.90;;;;;;4940100;28;20038;-85
2022/11/12 00:51:22;;;;;;;16.73;9.35;;;7.90;99.90;;;;;;4942258;28;20506;-85
2022/11/12 00:53:49;;;;;;;14.57;8.90;;;7.80;99.90;;;;;;4972484;28;20438;-85
2022/11/12 00:56:15;;;;;;;13.75;8.30;;;8.50;99.90;;;;;;4970810;28;20034;-85
2022/11/12 00:58:41;;;;;;;15.10;8.68;;;7.80;99.90;;;;;;4940091;28;20066;-85
2022/11/12 01:01:09;;;;;;;15.27;8.82;;;9.00;99.90;;;;;;4939645;28;20081;-85
2022/11/12 01:03:36;;;;;;;15.45;9.18;;;8.80;99.90;;;;;;4956390;28;20040;-85
2022/11/12 01:06:15;;;;;;;17.20;9.10;;;7.80;99.90;;;;;;4955909;28;20068;-85
2022/11/12 01:08:42;;;;;;;16.05;8.70;;;7.80;99.90;;;;;;4956123;28;20030;-85
2022/11/12 01:11:08;;;;;;;16.15;8.15;;;8.40;99.90;;;;;;4972648;28;20086;-85
2022/11/12 01:13:35;;;;;;;17.98;8.85;;;9.40;99.90;;;;;;4973310;28;20080;-85
2022/11/12 01:16:05;;;;;;;16.48;8.90;;;7.80;99.90;;;;;;4923052;28;20052;-85
2022/11/12 01:18:31;;;;;;;15.40;8.68;;;8.30;99.90;;;;;;4954031;28;20758;-85
2022/11/12 01:21:02;;;;;;;16.08;8.07;;;8.00;99.90;;;;;;4938335;28;20047;-85
2022/11/12 01:23:28;;;;;;;14.07;8.23;;;7.90;99.90;;;;;;4965640;28;20081;-85
2022/11/12 01:25:54;;;;;;;14.65;8.30;;;7.60;99.90;;;;;;4956885;28;20137;-85
2022/11/12 01:28:19;;;;;;;14.73;8.68;;;8.10;99.90;;;;;;4954968;28;20069;-85
2022/11/12 01:30:45;;;;;;;16.33;9.02;;;8.30;99.90;;;;;;4955745;28;20050;-85
2022/11/12 01:33:10;;;;;;;16.85;9.32;;;8.30;99.90;;;;;;4942047;28;20046;-85
2022/11/12 01:35:36;;;;;;;17.30;8.85;;;8.50;99.90;;;;;;4940800;28;20050;-85
2022/11/12 01:38:02;;;;;;;16.70;9.25;;;7.60;99.90;;;;;;4955321;28;20057;-86
2022/11/12 01:40:27;;;;;;;16.90;9.35;;;8.20;99.90;;;;;;4939091;28;20509;-85
2022/11/12 01:42:53;;;;;;;15.00;9.25;;;7.60;99.90;;;;;;4939652;28;20656;-85
2022/11/12 01:45:19;;;;;;;15.18;9.13;;;8.20;99.90;;;;;;4956396;28;20042;-85
2022/11/12 01:47:48;;;;;;;17.13;8.95;;;8.20;99.90;;;;;;4955749;28;20039;-85
2022/11/12 01:50:22;;;;;;;18.95;9.57;;;7.60;99.90;;;;;;4954564;28;20042;-85
2022/11/12 01:53:16;;;;;;;16.00;9.35;;;8.50;99.90;;;;;;4971210;28;20042;-85
2022/11/12 01:55:42;;;;;;;15.15;9.55;;;7.50;99.90;;;;;;4952527;28;20096;-85
2022/11/12 01:58:11;;;;;;;15.77;9.13;;;7.50;99.90;;;;;;4956078;28;20070;-85
2022/11/12 02:00:38;;;;;;;16.45;9.73;;;8.30;99.90;;;;;;4969620;28;20104;-85
2022/11/12 02:03:10;;;;;;;15.38;9.23;;;8.90;99.90;;;;;;4956864;28;20479;-85
2022/11/12 02:05:37;;;;;;;17.67;9.47;;;8.60;99.90;;;;;;4954056;28;20446;-85
2022/11/12 02:08:04;;;;;;;17.15;10.02;;;8.50;99.90;;;;;;4970269;28;20089;-85
2022/11/12 02:10:30;;;;;;;17.83;9.88;;;8.10;99.90;;;;;;4954544;28;20182;-85
2022/11/12 02:15:41;;;;;;;16.75;9.40;;;8.70;99.90;;;;;;4952124;28;20126;-85
2022/11/12 02:18:07;;;;;;;17.05;9.50;;;7.30;99.90;;;;;;4939343;28;20424;-85
2022/11/12 02:20:37;;;;;;;16.73;9.57;;;7.30;99.90;;;;;;4938026;28;20042;-85
2022/11/12 02:23:05;;;;;;;16.52;9.73;;;7.70;99.90;;;;;;4953564;28;20046;-85
2022/11/12 02:25:33;;;;;;;16.58;9.63;;;7.70;99.90;;;;;;4940599;28;20042;-85
2022/11/12 02:28:00;;;;;;;15.57;9.85;;;9.00;99.90;;;;;;4948971;28;20147;-84
2022/11/12 02:30:33;;;;;;;17.15;10.00;;;7.20;99.90;;;;;;4953535;28;20117;-85
2022/11/12 02:32:59;;;;;;;16.98;9.82;;;7.50;99.90;;;;;;4955506;28;20046;-85
2022/11/12 02:35:24;;;;;;;19.33;10.23;;;8.10;99.90;;;;;;4971432;28;20494;-85
2022/11/12 02:37:50;;;;;;;17.45;9.88;;;7.10;99.90;;;;;;4953874;28;20033;-85
2022/11/12 02:40:16;;;;;;;16.30;9.63;;;8.10;99.90;;;;;;4923147;28;20038;-85
2022/11/12 02:42:42;;;;;;;16.65;10.15;;;7.10;99.90;;;;;;4938000;28;20648;-85
2022/11/12 02:45:08;;;;;;;18.17;10.50;;;7.10;99.90;;;;;;4938085;28;20058;-85
2022/11/12 02:47:34;;;;;;;19.83;11.18;;;7.10;99.90;;;;;;4938052;28;20074;-85
2022/11/12 02:50:00;;;;;;;17.98;11.02;;;7.10;99.90;;;;;;4952296;28;20069;-85
2022/11/12 02:52:25;;;;;;;17.67;9.88;;;7.10;99.90;;;;;;4938607;28;20046;-85
2022/11/12 02:54:51;;;;;;;19.63;10.75;;;7.80;99.90;;;;;;4956165;28;20049;-85
2022/11/12 02:57:16;;;;;;;18.48;10.30;;;7.80;99.90;;;;;;4954982;28;20136;-85
2022/11/12 02:59:42;;;;;;;18.40;10.57;;;7.30;99.90;;;;;;4921309;28;20047;-85
2022/11/12 03:02:08;;;;;;;18.00;10.60;;;7.10;99.90;;;;;;4952599;28;20104;-85
2022/11/12 03:04:33;;;;;;;20.02;10.80;;;7.80;99.90;;;;;;4953600;28;20601;-85
2022/11/12 03:06:59;;;;;;;19.50;10.88;;;7.00;99.90;;;;;;4969303;28;20137;-85
2022/11/12 03:09:25;;;;;;;17.83;10.57;;;7.00;99.90;;;;;;4920636;28;20673;-85
2022/11/12 03:11:50;;;;;;;17.60;10.85;;;7.00;99.90;;;;;;4929075;28;20050;-85
2022/11/12 03:14:16;;;;;;;18.42;10.70;;;7.50;99.90;;;;;;4918262;28;20042;-85
2022/11/12 03:16:41;;;;;;;17.02;10.65;;;6.90;99.90;;;;;;4926975;28;20054;-85
2022/11/12 03:19:07;;;;;;;16.00;10.25;;;8.00;99.90;;;;;;4920676;28;20047;-85
2022/11/12 03:21:33;;;;;;;19.75;11.02;;;6.90;99.90;;;;;;4938908;28;20042;-86
2022/11/12 03:24:00;;;;;;;18.35;10.88;;;6.90;99.90;;;;;;4953279;28;20038;-85
2022/11/12 03:26:26;;;;;;;17.00;10.43;;;7.90;99.90;;;;;;4955326;28;20051;-85
2022/11/12 03:28:52;;;;;;;19.95;10.90;;;7.80;99.90;;;;;;4954070;28;20150;-85
2022/11/12 03:31:18;;;;;;;17.67;11.20;;;6.80;99.90;;;;;;4939588;28;20583;-85
2022/11/12 03:33:44;;;;;;;20.17;12.30;;;6.80;99.90;;;;;;4968665;28;20061;-86
2022/11/12 03:36:10;;;;;;;20.27;11.48;;;7.50;99.90;;;;;;4937837;28;20487;-86
2022/11/12 03:38:36;;;;;;;18.42;11.38;;;7.10;99.90;;;;;;4936829;28;20650;-85
2022/11/12 03:41:02;;;;;;;18.95;11.18;;;7.90;99.90;;;;;;4948616;28;20042;-85
2022/11/12 03:43:28;;;;;;;18.38;11.30;;;6.70;99.90;;;;;;4954883;28;20105;-85
2022/11/12 03:45:54;;;;;;;17.88;11.10;;;7.70;99.90;;;;;;4953868;28;20092;-85
2022/11/12 03:48:19;;;;;;;19.00;12.15;;;6.70;99.90;;;;;;4953798;28;20038;-85
2022/11/12 03:50:45;;;;;;;18.00;10.63;;;7.60;99.90;;;;;;4938296;28;20042;-86
2022/11/12 03:53:11;;;;;;;17.60;12.02;;;7.50;99.90;;;;;;4954687;28;20112;-86
2022/11/12 03:55:37;;;;;;;21.48;12.68;;;7.50;99.90;;;;;;4938246;28;20057;-83
2022/11/12 03:58:02;;;;;;;20.38;12.73;;;6.70;99.90;;;;;;4936814;28;20108;-85
2022/11/12 04:00:29;;;;;;;19.30;11.98;;;7.10;99.90;;;;;;4951638;28;20046;-85
2022/11/12 04:02:55;;;;;;;20.77;12.60;;;6.70;99.90;;;;;;4954311;28;20113;-86
2022/11/12 04:10:55;;;;;;;18.90;12.20;;;8.30;99.90;;;;;;4967077;28;20046;-84
2022/11/12 04:13:27;;;;;;;22.92;13.00;;;7.40;99.90;;;;;;4955837;28;20038;-84
2022/11/12 04:21:50;;;;;;;19.80;11.80;;;6.70;99.90;;;;;;4971714;28;20071;-84
2022/11/12 04:27:16;;;;;;;18.92;11.77;;;6.70;99.90;;;;;;4968606;28;20502;-84
2022/11/12 04:32:27;;;;;;;19.70;12.43;;;8.50;99.90;;;;;;4974168;28;20439;-84
2022/11/12 04:34:52;;;;;;;18.88;12.30;;;6.60;99.90;;;;;;4972457;28;20503;-85
2022/11/12 04:37:19;;;;;;;20.45;12.13;;;7.90;99.90;;;;;;4957221;28;20045;-84
2022/11/12 04:39:45;;;;;;;21.15;12.23;;;7.90;99.90;;;;;;4956602;28;20042;-84
2022/11/12 04:45:04;;;;;;;20.17;11.77;;;7.00;99.90;;;;;;4950323;28;20372;-85
2022/11/12 04:47:33;;;;;;;21.02;13.52;;;6.50;99.90;;;;;;4925218;28;20042;-85
2022/11/12 04:50:00;;;;;;;18.70;12.25;;;6.40;99.90;;;;;;4957206;28;20561;-85
2022/11/12 04:52:27;;;;;;;19.77;12.25;;;7.50;99.90;;;;;;4973115;28;20104;-85
2022/11/12 04:54:54;;;;;;;21.33;12.55;;;6.40;99.90;;;;;;4956394;28;20556;-85
2022/11/12 04:57:20;;;;;;;19.25;12.18;;;;;;;;;;4941138;28;20041;-85
2022/11/12 04:59:46;;;;;;;18.30;11.90;;;6.40;99.90;;;;;;4955541;28;20049;-85
2022/11/12 05:02:13;;;;;;;19.33;11.65;;;7.60;99.90;;;;;;4957306;28;20053;-85
2022/11/12 05:04:38;;;;;;;19.35;12.80;;;7.60;99.90;;;;;;4941204;28;20497;-85
2022/11/12 05:07:04;;;;;;;21.98;13.13;;;7.50;99.90;;;;;;4952826;28;20045;-85
2022/11/12 05:09:30;;;;;;;23.63;13.32;;;7.20;99.90;;;;;;4955164;28;20421;-84
2022/11/12 05:11:56;;;;;;;21.27;12.15;;;8.10;99.90;;;;;;4938480;28;20047;-84
2022/11/12 05:14:23;;;;;;;20.23;11.65;;;7.50;99.90;;;;;;4956254;28;20054;-84
2022/11/12 05:16:49;;;;;;;23.20;13.80;;;6.20;99.90;;;;;;4956266;28;20153;-84
2022/11/12 05:19:15;;;;;;;20.75;11.85;;;6.50;99.90;;;;;;4955775;28;20486;-84
2022/11/12 05:24:25;;;;;;;19.90;12.52;;;7.30;99.90;;;;;;4951746;28;20038;-84
2022/11/12 05:26:51;;;;;;;17.45;11.73;;;6.20;99.90;;;;;;4973605;28;20050;-85
2022/11/12 05:29:17;;;;;;;19.92;12.32;;;6.20;99.90;;;;;;4955958;28;20038;-85
2022/11/12 05:31:43;;;;;;;22.23;12.82;;;6.20;99.90;;;;;;4956952;28;20042;-85
2022/11/12 05:34:09;;;;;;;18.42;12.13;;;7.20;99.90;;;;;;4956595;28;20049;-85
2022/11/12 05:36:35;;;;;;;18.75;11.75;;;6.10;99.90;;;;;;4955059;28;20038;-85
2022/11/12 05:39:01;;;;;;;21.80;12.85;;;6.10;99.90;;;;;;4938223;28;20038;-84
2022/11/12 05:41:27;;;;;;;18.25;12.10;;;6.20;99.90;;;;;;4938415;28;20042;-84
2022/11/12 05:43:52;;;;;;;18.20;12.07;;;6.10;99.90;;;;;;4953686;28;20053;-84
2022/11/12 05:46:18;;;;;;;21.67;12.90;;;6.80;99.90;;;;;;4955208;28;20052;-85
2022/11/12 05:48:44;;;;;;;19.05;12.10;;;6.90;99.90;;;;;;4956329;28;20031;-84
2022/11/12 05:51:12;;;;;;;19.90;11.45;;;6.00;99.90;;;;;;4955298;28;20070;-84
2022/11/12 05:53:38;;;;;;;21.60;12.75;;;6.00;99.90;;;;;;4956257;28;20052;-85
2022/11/12 05:56:05;;;;;;;22.58;13.30;;;6.00;99.90;;;;;;4940458;28;20126;-85
2022/11/12 05:58:32;;;;;;;21.65;13.25;;;6.00;99.90;;;;;;4971719;28;20043;-85
2022/11/12 06:00:58;;;;;;;18.00;11.50;;;6.50;99.90;;;;;;4955477;28;20046;-85
2022/11/12 06:03:25;;;;;;;21.23;13.57;;;7.40;99.90;;;;;;4952940;28;20422;-85
2022/11/12 06:05:51;;;;;;;22.58;12.43;;;6.60;99.90;;;;;;4969518;28;20109;-85
2022/11/12 06:08:17;;;;;;;21.90;13.25;;;6.10;99.90;;;;;;4955669;28;20085;-85
2022/11/12 06:10:53;;;;;;;21.10;12.50;;;5.90;99.90;;;;;;4937835;28;20043;-84
2022/11/12 06:13:21;;;;;;;20.55;12.82;;;7.60;99.90;;;;;;4968660;28;20062;-84
2022/11/12 06:15:46;;;;;;;18.17;11.48;;;7.30;99.90;;;;;;4955498;28;20411;-84
2022/11/12 06:18:12;;;;;;;22.50;12.75;;;5.80;99.90;;;;;;4937048;28;20054;-85
2022/11/12 06:20:38;;;;;;;18.50;11.82;;;5.80;99.90;;;;;;4967794;28;20042;-84
2022/11/12 06:23:04;;;;;;;18.70;11.90;;;7.30;99.90;;;;;;4953718;28;20407;-84
2022/11/12 06:25:30;;;;;;;18.42;10.95;;;6.70;99.90;;;;;;4955551;28;20030;-84
2022/11/12 06:27:56;;;;;;;20.00;11.05;;;5.80;99.90;;;;;;4922661;28;20129;-85
2022/11/12 06:30:22;;;;;;;17.80;11.60;;;6.20;99.90;;;;;;4953918;28;20044;-84
2022/11/12 06:32:49;;;;;;;20.65;11.60;;;5.70;99.90;;;;;;4951066;28;20046;-84
2022/11/12 06:35:16;;;;;;;18.10;10.50;;;5.70;99.90;;;;;;4970715;28;20070;-84
2022/11/12 06:37:41;;;;;;;19.77;10.88;;;5.60;99.90;;;;;;4954091;28;20042;-84
2022/11/12 06:40:07;;;;;;;18.65;10.73;;;5.60;99.90;;;;;;4953711;28;20041;-84
2022/11/12 06:42:33;;;;;;;23.13;10.95;;;5.50;99.90;;;;;;4969524;28;20090;-84
2022/11/12 06:44:59;;;;;;;19.50;10.68;;;6.50;99.90;;;;;;4946540;28;20034;-84
2022/11/12 06:47:25;;;;;;;40.65;11.57;;;6.90;99.90;;;;;;4970371;28;20041;-84
2022/11/12 06:49:51;;;;;;;18.77;10.38;;;5.90;99.90;;;;;;4952821;28;20042;-84
2022/11/12 06:52:17;;;;;;;18.15;10.32;;;5.60;99.90;;;;;;4967827;28;20555;-84
2022/11/12 06:54:44;;;;;;;18.20;9.88;;;5.70;99.90;;;;;;4953111;28;20735;-84
2022/11/12 06:57:10;;;;;;;15.82;9.60;;;6.70;99.90;;;;;;4963711;28;20498;-84
2022/11/12 06:59:35;;;;;;;36.85;10.63;;;5.70;99.90;;;;;;4969159;28;20070;-84
2022/11/12 07:02:01;;;;;;;38.10;10.55;;;5.30;99.90;;;;;;4936101;28;20038;-84
2022/11/12 07:04:27;;;;;;;35.05;10.75;;;5.40;99.90;;;;;;4936450;28;20045;-84
2022/11/12 07:06:52;;;;;;;18.30;9.63;;;5.70;99.90;;;;;;4940701;28;20117;-84
2022/11/12 07:09:18;;;;;;;22.45;10.40;;;5.80;99.90;;;;;;4940546;28;20495;-84
2022/11/12 07:11:44;;;;;;;43.60;13.27;;;5.30;99.90;;;;;;4940568;28;20046;-84
2022/11/12 07:14:10;;;;;;;35.97;11.13;;;5.30;99.90;;;;;;4956924;28;20038;-84
2022/11/12 07:16:35;;;;;;;44.25;11.32;;;5.40;99.90;;;;;;4934195;29;20043;-85
2022/11/12 07:19:01;;;;;;;26.95;10.38;;;6.90;99.90;;;;;;4904990;28;20508;-84
2022/11/12 07:21:27;;;;;;;20.83;10.65;;;6.20;99.90;;;;;;4932049;29;20047;-85
2022/11/12 07:23:53;;;;;;;16.92;10.35;;;6.60;99.90;;;;;;4918371;29;20122;-84
2022/11/12 07:26:22;;;;;;;47.13;12.27;;;6.10;99.90;;;;;;4917839;29;20432;-84
2022/11/12 07:28:49;;;;;;;20.55;11.70;;;5.60;99.90;;;;;;4929207;29;20035;-84
2022/11/12 07:31:17;;;;;;;19.80;11.60;;;5.70;99.90;;;;;;4913995;28;20046;-84
2022/11/12 07:33:44;;;;;;;23.80;12.30;;;6.20;99.90;;;;;;4929489;29;20090;-84
2022/11/12 07:36:17;;;;;;;19.15;10.50;;;6.80;99.90;;;;;;4927810;29;20093;-85
2022/11/12 07:38:43;;;;;;;27.23;11.27;;;5.90;99.90;;;;;;4962977;28;20079;-85
2022/11/12 07:41:13;;;;;;;42.78;13.23;;;7.20;99.90;;;;;;4949984;29;20047;-85
2022/11/12 07:43:40;;;;;;;27.90;11.48;;;6.00;99.90;;;;;;4934126;29;20097;-85
2022/11/12 07:46:21;;;;;;;103.60;18.40;;;7.00;99.90;;;;;;4948561;29;20443;-85
2022/11/12 07:48:47;;;;;;;149.32;20.45;;;6.10;99.90;;;;;;4952146;28;20043;-85
2022/11/12 07:51:15;;;;;;;89.32;16.65;;;7.00;99.90;;;;;;4954099;29;20053;-84
2022/11/12 07:53:42;;;;;;;55.50;15.18;;;6.60;99.90;;;;;;4953826;29;20159;-84
2022/11/12 07:56:12;;;;;;;41.40;14.75;;;6.20;99.90;;;;;;4922419;29;20043;-84
2022/11/12 07:58:38;;;;;;;82.40;17.42;;;6.30;99.90;;;;;;4937084;29;20075;-84
2022/11/12 08:01:17;;;;;;;56.72;14.88;;;7.10;99.90;;;;;;4952267;29;20046;-84
2022/11/12 08:03:43;;;;;;;65.93;16.48;;;6.40;99.90;;;;;;4937696;29;20438;-84
2022/11/12 08:06:08;;;;;;;56.85;17.10;;;6.90;99.90;;;;;;4907054;29;20046;-84
2022/11/12 08:08:34;;;;;;;86.10;19.73;;;6.50;99.90;;;;;;4933756;29;20390;-84
2022/11/12 08:11:00;;;;;;;77.97;19.83;;;7.50;99.90;;;;;;4899745;28;20153;-84
2022/11/12 08:13:25;;;;;;;116.90;23.23;;;6.70;99.90;;;;;;4919153;29;20119;-84
2022/11/12 08:15:51;;;;;;;35.05;19.02;;;7.50;99.90;;;;;;4935233;29;20047;-84
2022/11/12 08:18:17;;;;;;;57.28;19.65;;;7.70;99.90;;;;;;4943912;28;20061;-84
2022/11/12 08:20:43;;;;;;;110.45;22.35;;;6.80;99.90;;;;;;4954900;28;20411;-84
2022/11/12 08:23:09;;;;;;;68.57;20.52;;;6.90;99.90;;;;;;4938555;28;20122;-84
2022/11/12 08:25:35;;;;;;;75.55;21.30;;;7.00;99.90;;;;;;4953576;28;20039;-84
2022/11/12 08:28:01;;;;;;;80.85;20.75;;;7.60;99.90;;;;;;4948128;28;20071;-85
2022/11/12 08:30:28;;;;;;;47.05;19.25;;;7.60;99.90;;;;;;4965138;28;20525;-84
2022/11/12 08:33:04;;;;;;;47.13;19.70;;;7.20;99.90;;;;;;4972177;28;20042;-84
2022/11/12 08:35:31;;;;;;;46.45;19.92;;;7.20;99.90;;;;;;4970435;28;20049;-84
2022/11/12 08:38:06;;;;;;;72.97;21.00;;;8.60;99.90;;;;;;4956543;28;20046;-84
2022/11/12 08:40:32;;;;;;;62.85;20.63;;;7.30;99.90;;;;;;4972503;28;20050;-84
2022/11/12 08:43:06;;;;;;;42.78;19.08;;;7.40;99.90;;;;;;4940020;28;20045;-84
2022/11/12 08:45:33;;;;;;;63.55;20.75;;;7.90;99.90;;;;;;4948418;28;20109;-84
2022/11/12 08:48:05;;;;;;;48.45;20.58;;;8.30;99.90;;;;;;4951014;28;20030;-84
2022/11/12 08:50:33;;;;;;;42.90;20.65;;;7.50;99.90;;;;;;4955579;28;20118;-84
2022/11/12 08:53:04;;;;;;;59.92;20.17;;;8.80;99.90;;;;;;4972068;28;20529;-84
2022/11/12 08:55:32;;;;;;;70.70;21.45;;;8.60;99.90;;;;;;4943580;28;20077;-85
2022/11/12 08:58:01;;;;;;;55.00;20.80;;;8.70;99.90;;;;;;4939311;28;20043;-86
2022/11/12 09:00:37;;;;;;;42.08;18.55;;;8.50;99.90;;;;;;4970577;28;20042;-84
2022/11/12 09:03:04;;;;;;;87.88;22.13;;;7.70;99.90;;;;;;4971537;28;20038;-84
2022/11/12 09:05:30;;;;;;;70.40;21.52;;;7.80;99.90;;;;;;4971966;28;20098;-84
2022/11/12 09:08:01;;;;;;;51.17;20.02;;;7.80;99.90;;;;;;4955677;28;20531;-84
2022/11/12 09:10:27;;;;;;;35.33;18.17;;;;;;;;;;4965046;28;20038;-83
2022/11/12 09:12:53;;;;;;;43.25;19.15;;;7.90;99.90;;;;;;4952385;28;20105;-85
2022/11/12 09:15:23;;;;;;;33.15;16.55;;;7.90;99.90;;;;;;4937044;28;20511;-85
2022/11/12 09:17:57;;;;;;;60.65;21.30;;;9.20;99.90;;;;;;4941263;28;20063;-84
2022/11/12 09:20:23;;;;;;;58.72;20.33;;;8.70;99.90;;;;;;4929684;29;20043;-85
2022/11/12 09:22:50;;;;;;;35.97;17.38;;;7.90;99.90;;;;;;4933400;29;20091;-85
2022/11/12 09:25:16;;;;;;;49.33;21.83;;;9.00;99.90;;;;;;4934523;29;20039;-84
2022/11/12 09:27:41;;;;;;;45.53;21.50;;;8.90;99.90;;;;;;4936388;29;20050;-84
2022/11/12 09:30:08;;;;;;;63.08;24.02;;;8.80;99.90;;;;;;4920287;29;20074;-85
2022/11/12 09:32:33;;;;;;;57.70;22.20;;;8.00;99.90;;;;;;4919888;29;20043;-84
2022/11/12 09:34:59;;;;;;;80.68;24.98;;;9.00;99.90;;;;;;4919590;29;20472;-84
2022/11/12 09:37:25;;;;;;;61.67;23.15;;;8.10;99.90;;;;;;4919441;29;20171;-84
2022/11/12 09:39:50;;;;;;;63.35;23.00;;;8.10;99.90;;;;;;4936110;29;20047;-84
2022/11/12 09:42:19;;;;;;;41.50;20.08;;;8.20;99.90;;;;;;4919204;29;20074;-84
2022/11/12 09:44:58;;;;;;;54.50;21.23;;;8.20;99.90;;;;;;4934719;29;20043;-84
2022/11/12 09:47:51;;;;;;;120.15;25.73;;;8.30;99.90;;;;;;4935829;29;20047;-85
2022/11/12 09:50:35;;;;;;;68.45;23.42;;;8.40;99.90;;;;;;4927922;29;20602;-84
2022/11/12 09:53:07;;;;;;;;;;;8.40;99.90;;;;;;4934744;29;20039;-85
2022/11/12 09:55:43;;;;;;;52.17;21.20;;;8.50;99.90;;;;;;4935770;29;19926;-85
2022/11/12 09:58:11;;;;;;;91.03;22.75;;;8.50;99.90;;;;;;4951778;29;20055;-85
2022/11/12 10:00:39;;;;;;;56.30;20.73;;;9.20;99.90;;;;;;4935786;29;20047;-85
2022/11/12 10:03:19;;;;;;;51.75;20.55;;;8.60;99.90;;;;;;4919715;29;20043;-85
2022/11/12 10:05:59;;;;;;;72.88;21.20;;;8.60;99.90;;;;;;4950546;29;20118;-85
2022/11/12 10:08:42;;;;;;;56.35;18.85;;;8.60;99.90;;;;;;4951027;29;20043;-85
2022/11/12 10:11:28;;;;;;;;;;;8.50;99.90;;;;;;4935466;29;20051;-85
2022/11/12 10:14:07;;;;;;;49.13;18.80;;;9.10;99.90;;;;;;4924132;29;19922;-85
2022/11/12 10:17:00;;;;;;;53.10;18.60;;;8.60;99.90;;;;;;4938149;28;20499;-85
2022/11/12 10:20:04;;;;;;;98.28;21.63;;;8.60;99.90;;;;;;4954338;28;20386;-85
2022/11/12 10:22:43;;;;;;;63.50;19.73;;;8.60;99.90;;;;;;4946484;28;20050;-86
2022/11/12 10:25:18;;;;;;;50.30;18.67;;;8.60;99.90;;;;;;4968892;28;20039;-85
2022/11/12 10:27:44;;;;;;;44.17;19.27;;;9.50;99.90;;;;;;4954052;28;20042;-85
2022/11/12 10:30:19;;;;;;;42.05;19.48;;;9.50;99.90;;;;;;4938750;28;20509;-85
2022/11/12 10:32:47;;;;;;;43.20;19.40;;;8.60;99.90;;;;;;4954166;28;20039;-85
2022/11/12 10:35:17;;;;;;;48.47;20.00;;;8.90;99.90;;;;;;4968913;28;20105;-84
2022/11/12 10:37:48;;;;;;;40.80;18.92;;;8.70;99.90;;;;;;4953980;28;20113;-85
2022/11/12 10:40:28;;;;;;;33.20;17.92;;;8.70;99.90;;;;;;4970704;28;20167;-84
2022/11/12 10:43:04;;;;;;;47.60;19.63;;;8.70;99.90;;;;;;4969937;28;20416;-85
2022/11/12 10:45:31;;;;;;;30.17;17.23;;;8.70;99.90;;;;;;4970287;28;20046;-85
2022/11/12 10:47:57;;;;;;;53.50;19.08;;;8.70;99.90;;;;;;4921535;28;20035;-84
2022/11/12 10:50:35;;;;;;;33.58;17.08;;;8.70;99.90;;;;;;4953668;28;20070;-85
2022/11/12 10:53:04;;;;;;;44.80;19.02;;;9.80;99.90;;;;;;4953774;28;20507;-85
2022/11/12 10:55:35;;;;;;;37.17;18.42;;;10.40;99.90;;;;;;4953828;28;20045;-84
2022/11/12 10:58:10;;;;;;;41.95;18.30;;;8.70;99.90;;;;;;4952974;28;20098;-84
2022/11/12 11:00:50;;;;;;;53.40;19.45;;;8.80;99.90;;;;;;4969722;28;20111;-85
2022/11/12 11:03:22;;;;;;;36.30;18.50;;;9.50;99.90;;;;;;4943063;28;20058;-85
2022/11/12 11:05:52;;;;;;;31.23;17.48;;;9.30;99.90;;;;;;4952900;28;20038;-85
2022/11/12 11:08:45;;;;;;;52.05;18.42;;;8.80;99.90;;;;;;4949492;28;20043;-84
2022/11/12 11:11:26;;;;;;;43.50;18.45;;;8.80;99.90;;;;;;4953415;28;20122;-85
2022/11/12 11:13:55;;;;;;;41.00;20.45;;;8.80;99.90;;;;;;4953930;28;20365;-84
2022/11/12 11:16:29;;;;;;;54.75;21.20;;;9.10;99.90;;;;;;4970992;28;20047;-85
2022/11/12 11:19:04;;;;;;;30.38;19.27;;;8.80;99.90;;;;;;4955470;28;20074;-85
2022/11/12 11:21:32;;;;;;;30.90;19.45;;;9.20;99.90;;;;;;4955610;28;20046;-85
2022/11/12 11:24:19;;;;;;;52.70;22.00;;;8.80;99.90;;;;;;4955865;28;20092;-85
2022/11/12 11:26:51;;;;;;;35.58;21.13;;;8.80;99.90;;;;;;4956950;28;20030;-84
2022/11/12 11:29:26;;;;;;;50.33;23.17;;;8.80;99.90;;;;;;4955721;28;20519;-85
2022/11/12 11:32:01;;;;;;;36.80;22.15;;;8.80;99.90;;;;;;4956559;28;20053;-84
2022/11/12 11:34:51;;;;;;;33.03;21.25;;;8.80;99.90;;;;;;4956750;28;20050;-84
2022/11/12 11:37:26;;;;;;;39.13;23.38;;;8.80;99.90;;;;;;4957128;28;20095;-85
2022/11/12 11:40:05;;;;;;;37.38;23.25;;;8.80;99.90;;;;;;4955909;28;20038;-85
2022/11/12 11:42:49;;;;;;;37.95;23.33;;;8.80;99.90;;;;;;4956163;28;20074;-85
2022/11/12 11:45:20;;;;;;;38.33;23.77;;;8.80;99.90;;;;;;4956208;28;20042;-85
2022/11/12 11:48:12;;;;;;;41.22;24.45;;;9.00;99.90;;;;;;4972451;28;20053;-85
2022/11/12 11:50:55;;;;;;;39.92;23.85;;;8.90;99.90;;;;;;4953961;28;20122;-85
2022/11/12 11:53:50;;;;;;;40.50;23.88;;;8.90;99.90;;;;;;4956625;28;20065;-85
2022/11/12 11:56:30;;;;;;;44.35;25.40;;;9.00;99.90;;;;;;4936400;28;20407;-85
2022/11/12 11:59:02;;;;;;;39.97;24.63;;;9.60;99.90;;;;;;4969804;28;20038;-85
2022/11/12 12:01:39;;;;;;;35.53;22.70;;;9.00;99.90;;;;;;4971543;28;20419;-85
2022/11/12 12:04:22;;;;;;;35.35;23.02;;;9.10;99.90;;;;;;4956385;28;20034;-85
2022/11/12 12:07:12;;;;;;;36.28;23.60;;;9.00;99.90;;;;;;4956433;28;20487;-85
2022/11/12 12:09:50;;;;;;;39.72;25.17;;;9.10;99.90;;;;;;4955805;28;20399;-85
2022/11/12 12:12:35;;;;;;;40.92;25.58;;;9.10;99.90;;;;;;4955402;28;20046;-85
2022/11/12 12:15:26;;;;;;;38.15;23.50;;;9.10;99.90;;;;;;4972384;28;20150;-85
2022/11/12 12:18:02;;;;;;;39.92;24.23;;;9.10;99.90;;;;;;4955899;28;20082;-85
2022/11/12 12:20:59;;;;;;;37.42;24.42;;;10.20;99.90;;;;;;4955337;28;20402;-85
2022/11/12 12:23:36;;;;;;;37.15;23.88;;;9.30;99.90;;;;;;4967638;28;20050;-85
2022/11/12 12:26:09;;;;;;;36.25;23.08;;;9.40;99.90;;;;;;4953708;28;20053;-85
2022/11/12 12:28:42;;;;;;;36.53;24.55;;;9.50;99.90;;;;;;4956757;28;20039;-85
2022/11/12 12:31:15;;;;;;;36.20;22.83;;;9.60;99.90;;;;;;4956321;28;20188;-85
2022/11/12 12:34:17;;;;;;;37.10;22.98;;;9.70;99.90;;;;;;4973131;28;20426;-85
2022/11/12 12:36:45;;;;;;;35.03;22.80;;;9.80;99.90;;;;;;4910776;28;20125;-85
2022/11/12 12:39:34;;;;;;;34.42;23.05;;;9.90;99.90;;;;;;4943945;28;20042;-85
2022/11/12 12:42:11;;;;;;;34.22;23.13;;;9.90;99.90;;;;;;4959301;28;20042;-85
2022/11/12 12:45:02;;;;;;;33.17;22.17;;;9.90;99.90;;;;;;4959383;28;20169;-85
2022/11/12 12:47:31;;;;;;;32.20;22.27;;;10.00;99.90;;;;;;4959582;28;20125;-84
2022/11/12 12:49:58;;;;;;;34.95;22.63;;;10.00;99.90;;;;;;4959713;28;20535;-85
2022/11/12 12:52:24;;;;;;;35.13;22.83;;;10.20;99.90;;;;;;4959719;28;20396;-87
2022/11/12 12:54:50;;;;;;;32.38;21.63;;;10.30;99.90;;;;;;4943157;28;20100;-85
2022/11/12 12:57:35;;;;;;;34.95;22.73;;;10.50;99.90;;;;;;4958558;28;20046;-85
2022/11/12 13:00:23;;;;;;;29.88;20.88;;;10.50;99.90;;;;;;4959194;28;20049;-85
2022/11/12 13:02:49;;;;;;;33.55;20.70;;;10.60;99.90;;;;;;4942910;28;20110;-86
2022/11/12 13:05:44;;;;;;;30.65;20.40;;;10.60;99.90;;;;;;4958999;28;20546;-85
2022/11/12 13:08:22;;;;;;;32.28;20.63;;;11.00;99.90;;;;;;4941312;28;20050;-85
2022/11/12 13:10:49;;;;;;;29.08;19.42;;;10.70;99.90;;;;;;4958890;28;20042;-85
2022/11/12 13:13:18;;;;;;;30.20;20.35;;;10.70;99.90;;;;;;4959232;28;20427;-85
2022/11/12 13:15:53;;;;;;;30.27;20.40;;;10.70;99.90;;;;;;4958764;28;20049;-85
2022/11/12 13:18:37;;;;;;;30.38;20.38;;;10.70;99.90;;;;;;4957873;28;20094;-85